createdAt,value
2018-02-18T00:01:27.720Z,4.43
2018-02-18T00:03:56.525Z,5.17
2018-02-18T00:06:25.712Z,6.30
2018-02-18T00:08:54.200Z,4.40
2018-02-18T00:11:23.050Z,5.53
2018-02-18T00:13:54.555Z,4.70
2018-02-18T00:16:22.850Z,4.13
2018-02-18T00:18:52.219Z,3.63
2018-02-18T00:21:20.876Z,5.90
2018-02-18T00:23:49.160Z,6.70
2018-02-18T00:26:17.540Z,5.23
2018-02-18T00:28:45.944Z,4.90
2018-02-18T00:31:14.644Z,6.30
2018-02-18T00:33:42.916Z,5.30
2018-02-18T00:36:12.088Z,5.97
2018-02-18T00:38:40.668Z,5.00
2018-02-18T00:41:09.040Z,5.83
2018-02-18T00:43:37.340Z,5.77
2018-02-18T00:46:05.633Z,4.67
2018-02-18T00:48:34.245Z,5.23
2018-02-18T00:51:03.296Z,5.60
2018-02-18T00:53:31.612Z,5.57
2018-02-18T00:56:00.653Z,5.30
2018-02-18T00:58:30.359Z,4.50
2018-02-18T01:00:58.676Z,4.40
2018-02-18T01:03:27.487Z,4.80
2018-02-18T01:05:56.038Z,4.43
2018-02-18T01:08:24.400Z,4.20
2018-02-18T01:10:53.021Z,4.37
2018-02-18T01:13:21.595Z,5.60
2018-02-18T01:15:49.896Z,4.87
2018-02-18T01:18:18.736Z,5.27
2018-02-18T01:20:47.127Z,5.20
2018-02-18T01:23:15.503Z,5.10
2018-02-18T01:25:43.793Z,4.60
2018-02-18T01:28:12.771Z,5.80
2018-02-18T01:30:41.863Z,5.43
2018-02-18T01:33:10.248Z,6.07
2018-02-18T01:38:11.969Z,5.90
2018-02-18T01:40:40.676Z,5.60
2018-02-18T01:43:10.564Z,6.80
2018-02-18T01:45:39.568Z,6.37
2018-02-18T01:48:08.645Z,5.97
2018-02-18T01:50:37.755Z,6.30
2018-02-18T01:53:06.024Z,5.83
2018-02-18T01:55:35.129Z,5.43
2018-02-18T01:58:04.741Z,6.20
2018-02-18T02:00:33.008Z,5.50
2018-02-18T02:03:01.978Z,5.80
2018-02-18T02:05:30.770Z,5.80
2018-02-18T02:07:59.791Z,6.80
2018-02-18T02:10:28.808Z,5.63
2018-02-18T02:12:59.589Z,5.67
2018-02-18T02:15:27.900Z,5.53
2018-02-18T02:17:56.349Z,5.40
2018-02-18T02:20:24.631Z,6.10
2018-02-18T02:22:52.908Z,5.47
2018-02-18T02:25:21.476Z,5.53
2018-02-18T02:27:50.000Z,5.70
2018-02-18T02:30:18.528Z,5.33
2018-02-18T02:32:46.836Z,6.47
2018-02-18T02:35:15.613Z,5.87
2018-02-18T02:37:43.914Z,6.30
2018-02-18T02:40:12.276Z,5.30
2018-02-18T02:42:40.571Z,5.80
2018-02-18T02:45:08.852Z,5.97
2018-02-18T02:47:38.071Z,7.00
2018-02-18T02:50:06.462Z,6.00
2018-02-18T02:52:37.001Z,6.20
2018-02-18T02:55:06.040Z,7.00
2018-02-18T02:57:34.312Z,6.23
2018-02-18T03:00:03.736Z,7.30
2018-02-18T03:02:32.744Z,8.10
2018-02-18T03:05:01.565Z,7.90
2018-02-18T03:07:31.743Z,6.87
2018-02-18T03:10:00.149Z,7.50
2018-02-18T03:12:28.904Z,7.20
2018-02-18T03:14:57.265Z,8.23
2018-02-18T03:17:26.736Z,7.17
2018-02-18T03:19:55.421Z,7.07
2018-02-18T03:22:24.477Z,7.70
2018-02-18T03:24:53.607Z,6.83
2018-02-18T03:27:23.177Z,6.30
2018-02-18T03:29:51.520Z,6.80
2018-02-18T03:32:21.761Z,7.23
2018-02-18T03:34:50.421Z,9.03
2018-02-18T03:37:19.851Z,7.70
2018-02-18T03:39:48.205Z,7.17
2018-02-18T03:42:18.023Z,6.50
2018-02-18T03:44:46.717Z,7.30
2018-02-18T03:47:15.842Z,7.13
2018-02-18T03:49:45.857Z,7.23
2018-02-18T03:52:14.133Z,7.23
2018-02-18T03:54:42.522Z,6.93
2018-02-18T03:57:10.852Z,7.07
2018-02-18T03:59:41.395Z,6.90
2018-02-18T04:02:10.476Z,7.67
2018-02-18T04:04:40.378Z,7.17
2018-02-18T04:07:09.095Z,7.33
2018-02-18T04:09:38.659Z,7.13
2018-02-18T04:12:06.951Z,6.63
2018-02-18T04:14:36.059Z,7.47
2018-02-18T04:17:05.540Z,7.67
2018-02-18T04:19:33.832Z,6.50
2018-02-18T04:22:02.957Z,7.20
2018-02-18T04:24:32.400Z,7.30
2018-02-18T04:27:02.135Z,7.63
2018-02-18T04:29:31.409Z,6.87
2018-02-18T04:31:59.868Z,8.50
2018-02-18T04:34:28.779Z,7.53
2018-02-18T04:36:58.033Z,7.23
2018-02-18T04:39:26.996Z,7.77
2018-02-18T04:41:55.300Z,8.23
2018-02-18T04:44:23.692Z,7.93
2018-02-18T04:46:52.831Z,8.67
2018-02-18T04:49:21.238Z,6.97
2018-02-18T04:51:51.429Z,7.67
2018-02-18T04:54:19.816Z,6.53
2018-02-18T04:56:48.843Z,7.53
2018-02-18T04:59:17.112Z,7.00
2018-02-18T05:01:45.429Z,8.30
2018-02-18T05:04:14.467Z,6.60
2018-02-18T05:06:42.748Z,7.20
2018-02-18T05:09:11.119Z,7.00
2018-02-18T05:11:40.263Z,5.90
2018-02-18T05:14:08.984Z,5.80
2018-02-18T05:16:37.596Z,6.00
2018-02-18T05:19:05.938Z,7.40
2018-02-18T05:21:34.663Z,6.47
2018-02-18T05:24:04.266Z,6.90
2018-02-18T05:26:34.005Z,6.50
2018-02-18T05:29:02.909Z,6.53
2018-02-18T05:31:31.201Z,7.17
2018-02-18T05:34:01.386Z,7.40
2018-02-18T05:36:29.661Z,4.90
2018-02-18T05:38:57.948Z,6.00
2018-02-18T05:41:26.512Z,6.57
2018-02-18T05:43:56.248Z,7.83
2018-02-18T05:46:24.525Z,6.93
2018-02-18T05:48:52.883Z,6.93
2018-02-18T05:51:22.604Z,6.70
2018-02-18T05:53:51.664Z,6.60
2018-02-18T05:56:19.974Z,5.30
2018-02-18T05:58:48.667Z,7.33
2018-02-18T06:01:18.863Z,6.50
2018-02-18T06:03:47.220Z,6.50
2018-02-18T06:06:17.225Z,5.97
2018-02-18T06:08:46.300Z,7.47
2018-02-18T06:11:14.605Z,5.97
2018-02-18T06:13:44.530Z,6.17
2018-02-18T06:16:13.636Z,6.07
2018-02-18T06:18:43.821Z,6.53
2018-02-18T06:21:12.123Z,5.87
2018-02-18T06:23:41.268Z,6.07
2018-02-18T06:26:09.537Z,7.70
2018-02-18T06:28:37.799Z,6.23
2018-02-18T06:31:07.717Z,6.83
2018-02-18T06:33:35.987Z,6.90
2018-02-18T06:36:05.225Z,6.77
2018-02-18T06:38:33.925Z,5.93
2018-02-18T06:41:02.769Z,7.30
2018-02-18T06:43:31.075Z,6.90
2018-02-18T06:45:59.377Z,6.60
2018-02-18T06:48:27.729Z,6.10
2018-02-18T06:50:57.010Z,6.73
2018-02-18T06:53:26.123Z,6.30
2018-02-18T06:55:54.538Z,6.67
2018-02-18T06:58:23.064Z,6.83
2018-02-18T07:00:51.341Z,7.70
2018-02-18T07:03:21.868Z,7.00
2018-02-18T07:05:50.164Z,6.73
2018-02-18T07:08:18.445Z,6.87
2018-02-18T07:10:47.343Z,6.67
2018-02-18T07:13:15.719Z,6.73
2018-02-18T07:15:44.803Z,6.57
2018-02-18T07:18:26.099Z,7.83
2018-02-18T07:20:56.576Z,6.43
2018-02-18T07:23:26.585Z,7.23
2018-02-18T07:25:55.159Z,7.00
2018-02-18T07:28:24.009Z,6.60
2018-02-18T07:30:52.276Z,7.60
2018-02-18T07:33:20.796Z,8.93
2018-02-18T07:35:49.917Z,8.10
2018-02-18T07:38:18.965Z,8.30
2018-02-18T07:40:47.284Z,6.23
2018-02-18T07:43:16.344Z,8.73
2018-02-18T07:45:45.339Z,8.80
2018-02-18T07:48:13.649Z,6.63
2018-02-18T07:50:41.914Z,6.77
2018-02-18T07:53:10.193Z,7.33
2018-02-18T07:55:38.553Z,6.50
2018-02-18T07:58:06.853Z,5.63
2018-02-18T08:00:35.129Z,7.23
2018-02-18T08:03:03.514Z,6.57
2018-02-18T08:05:31.835Z,6.23
2018-02-18T08:08:00.966Z,6.10
2018-02-18T08:10:29.335Z,6.40
2018-02-18T08:12:57.611Z,6.60
2018-02-18T08:15:25.916Z,6.63
2018-02-18T08:17:54.212Z,7.33
2018-02-18T08:20:22.489Z,5.97
2018-02-18T08:22:51.971Z,5.87
2018-02-18T08:25:20.258Z,6.33
2018-02-18T08:27:48.773Z,6.50
2018-02-18T08:30:17.345Z,5.47
2018-02-18T08:32:46.237Z,4.93
2018-02-18T08:35:14.776Z,4.13
2018-02-18T08:37:43.072Z,4.07
2018-02-18T08:40:12.685Z,4.63
2018-02-18T08:42:42.752Z,4.67
2018-02-18T08:45:11.800Z,4.57
2018-02-18T08:47:40.060Z,3.70
2018-02-18T08:50:08.463Z,4.87
2018-02-18T08:52:36.760Z,5.40
2018-02-18T08:55:05.378Z,4.30
2018-02-18T08:57:34.304Z,3.83
2018-02-18T09:00:03.097Z,3.87
2018-02-18T09:02:31.730Z,3.80
2018-02-18T09:05:01.544Z,4.23
2018-02-18T09:07:30.572Z,3.40
2018-02-18T09:10:00.199Z,3.93
2018-02-18T09:12:29.052Z,3.13
2018-02-18T09:14:57.356Z,4.30
2018-02-18T09:17:25.870Z,3.63
2018-02-18T09:19:55.182Z,3.83
2018-02-18T09:22:23.469Z,3.80
2018-02-18T09:24:51.743Z,3.80
2018-02-18T09:27:20.610Z,3.83
2018-02-18T09:29:50.047Z,4.17
2018-02-18T09:32:19.769Z,3.43
2018-02-18T09:34:50.078Z,2.60
2018-02-18T09:37:18.924Z,3.40
2018-02-18T09:39:47.192Z,3.40
2018-02-18T09:42:15.480Z,3.90
2018-02-18T09:44:44.433Z,3.03
2018-02-18T09:47:13.468Z,4.10
2018-02-18T09:49:42.612Z,3.10
2018-02-18T09:52:11.765Z,4.00
2018-02-18T09:54:40.373Z,2.93
2018-02-18T09:57:08.753Z,2.87
2018-02-18T09:59:37.630Z,2.60
2018-02-18T10:02:05.901Z,2.10
2018-02-18T10:04:34.461Z,2.83
2018-02-18T10:07:04.082Z,2.50
2018-02-18T10:09:32.989Z,2.30
2018-02-18T10:12:01.317Z,3.47
2018-02-18T10:14:30.854Z,2.43
2018-02-18T10:16:59.183Z,2.67
2018-02-18T10:19:27.748Z,3.70
2018-02-18T10:21:56.029Z,2.90
2018-02-18T10:24:24.609Z,2.80
2018-02-18T10:26:52.994Z,3.00
2018-02-18T10:29:21.276Z,2.33
2018-02-18T10:31:49.748Z,2.80
2018-02-18T10:34:19.048Z,2.77
2018-02-18T10:36:49.031Z,2.87
2018-02-18T10:39:19.076Z,2.53
2018-02-18T10:41:47.882Z,3.00
2018-02-18T10:44:16.658Z,2.20
2018-02-18T10:46:46.884Z,2.37
2018-02-18T10:49:15.270Z,2.50
2018-02-18T10:51:44.157Z,2.00
2018-02-18T10:54:12.777Z,3.10
2018-02-18T10:56:41.684Z,3.00
2018-02-18T10:59:12.417Z,2.70
2018-02-18T11:01:43.167Z,3.50
2018-02-18T11:04:12.232Z,2.93
2018-02-18T11:06:40.495Z,3.47
2018-02-18T11:09:09.457Z,2.70
2018-02-18T11:11:37.868Z,4.27
2018-02-18T11:14:06.127Z,3.63
2018-02-18T11:16:35.482Z,2.60
2018-02-18T11:19:04.549Z,2.87
2018-02-18T11:21:32.813Z,3.07
2018-02-18T11:24:01.103Z,2.63
2018-02-18T11:26:30.179Z,2.60
2018-02-18T11:29:01.301Z,3.87
2018-02-18T11:31:30.972Z,3.00
2018-02-18T11:34:00.033Z,3.30
2018-02-18T11:36:28.905Z,3.57
2018-02-18T11:38:57.193Z,4.27
2018-02-18T11:41:25.477Z,3.00
2018-02-18T11:43:55.172Z,3.17
2018-02-18T11:46:24.784Z,2.90
2018-02-18T11:48:53.058Z,3.40
2018-02-18T11:51:21.335Z,3.07
2018-02-18T11:53:52.273Z,3.60
2018-02-18T11:56:21.068Z,4.00
2018-02-18T11:58:50.112Z,3.40
2018-02-18T12:01:19.414Z,3.50
2018-02-18T12:03:47.694Z,2.93
2018-02-18T12:06:16.842Z,3.40
2018-02-18T12:08:45.439Z,3.43
2018-02-18T12:11:13.968Z,3.83
2018-02-18T12:13:42.823Z,4.90
2018-02-18T12:16:11.449Z,5.60
2018-02-18T12:18:41.507Z,6.13
2018-02-18T12:21:09.987Z,5.90
2018-02-18T12:23:38.368Z,4.40
2018-02-18T12:26:07.395Z,4.40
2018-02-18T12:28:36.155Z,4.20
2018-02-18T12:31:05.625Z,4.00
2018-02-18T12:33:35.240Z,5.20
2018-02-18T12:36:04.264Z,5.07
2018-02-18T12:38:33.150Z,5.10
2018-02-18T12:41:02.996Z,5.40
2018-02-18T12:43:31.260Z,5.77
2018-02-18T12:45:59.555Z,5.77
2018-02-18T12:48:28.065Z,5.10
2018-02-18T12:50:56.740Z,5.23
2018-02-18T12:53:25.956Z,5.03
2018-02-18T12:55:56.231Z,5.67
2018-02-18T12:58:24.527Z,5.90
2018-02-18T13:00:52.984Z,5.33
2018-02-18T13:03:21.904Z,5.77
2018-02-18T13:05:50.400Z,5.77
2018-02-18T13:08:19.220Z,5.20
2018-02-18T13:10:48.666Z,5.83
2018-02-18T13:13:16.966Z,6.87
2018-02-18T13:15:45.235Z,6.20
2018-02-18T13:18:14.364Z,6.47
2018-02-18T13:20:42.637Z,5.80
2018-02-18T13:23:11.984Z,5.60
2018-02-18T13:25:40.261Z,6.17
2018-02-18T13:28:09.243Z,6.00
2018-02-18T13:30:39.609Z,7.07
2018-02-18T13:33:08.397Z,6.53
2018-02-18T13:35:37.202Z,6.83
2018-02-18T13:38:06.160Z,6.53
2018-02-18T13:40:34.429Z,7.17
2018-02-18T13:43:02.879Z,5.40
2018-02-18T13:45:31.465Z,5.33
2018-02-18T13:48:03.301Z,8.20
2018-02-18T13:50:31.577Z,5.70
2018-02-18T13:52:59.939Z,5.50
2018-02-18T13:55:28.234Z,6.00
2018-02-18T13:57:56.813Z,6.70
2018-02-18T14:00:25.108Z,6.43
2018-02-18T14:02:53.947Z,6.17
2018-02-18T14:05:23.179Z,6.30
2018-02-18T14:07:52.562Z,5.83
2018-02-18T14:10:20.840Z,6.90
2018-02-18T14:12:50.147Z,5.77
2018-02-18T14:15:18.442Z,6.70
2018-02-18T14:17:46.713Z,6.50
2018-02-18T14:20:15.729Z,5.70
2018-02-18T14:22:45.216Z,6.10
2018-02-18T14:25:13.873Z,6.97
2018-02-18T14:27:42.153Z,7.70
2018-02-18T14:30:10.469Z,7.23
2018-02-18T14:32:40.220Z,6.37
2018-02-18T14:35:08.509Z,7.80
2018-02-18T14:37:36.842Z,6.50
2018-02-18T14:40:05.149Z,6.20
2018-02-18T14:46:07.514Z,6.07
2018-02-18T14:48:53.667Z,6.30
2018-02-18T14:51:40.173Z,5.83
2018-02-18T14:54:26.233Z,6.57
2018-02-18T14:57:09.523Z,5.90
2018-02-18T14:59:38.509Z,6.83
2018-02-18T15:02:07.592Z,6.13
2018-02-18T15:04:35.857Z,6.70
2018-02-18T15:07:04.141Z,7.33
2018-02-18T15:09:32.413Z,6.97
2018-02-18T15:12:01.662Z,6.37
2018-02-18T15:14:31.252Z,6.50
2018-02-18T15:17:00.513Z,6.40
2018-02-18T15:19:29.441Z,6.60
2018-02-18T15:21:57.731Z,6.00
2018-02-18T15:24:26.140Z,6.90
2018-02-18T15:26:54.880Z,6.60
2018-02-18T15:29:23.259Z,7.60
2018-02-18T15:31:51.553Z,7.20
2018-02-18T15:34:19.816Z,6.30
2018-02-18T15:36:48.120Z,6.80
2018-02-18T15:39:16.480Z,7.00
2018-02-18T15:41:46.033Z,7.00
2018-02-18T15:44:15.092Z,6.87
2018-02-18T15:46:43.379Z,5.83
2018-02-18T15:49:11.688Z,7.00
2018-02-18T15:51:40.728Z,6.30
2018-02-18T15:54:10.268Z,5.90
2018-02-18T15:56:38.552Z,6.70
2018-02-18T15:59:07.845Z,5.60
2018-02-18T16:01:36.111Z,5.90
2018-02-18T16:04:04.471Z,6.67
2018-02-18T16:06:32.872Z,5.60
2018-02-18T16:09:01.724Z,5.87
2018-02-18T16:11:30.877Z,6.87
2018-02-18T16:13:59.372Z,4.60
2018-02-18T16:16:28.030Z,6.63
2018-02-18T16:18:56.302Z,4.60
2018-02-18T16:21:24.602Z,5.00
2018-02-18T16:23:53.790Z,5.50
2018-02-18T16:26:22.462Z,6.20
2018-02-18T16:28:50.766Z,5.37
2018-02-18T16:31:19.040Z,7.43
2018-02-18T16:33:47.305Z,7.63
2018-02-18T16:36:15.609Z,7.73
2018-02-18T16:38:44.691Z,6.17
2018-02-18T16:41:13.045Z,7.07
2018-02-18T16:43:41.337Z,7.70
2018-02-18T16:46:09.622Z,7.23
2018-02-18T16:48:38.391Z,7.40
2018-02-18T16:51:08.224Z,6.70
2018-02-18T16:53:36.525Z,8.20
2018-02-18T16:56:04.820Z,6.30
2018-02-18T16:58:33.868Z,5.77
2018-02-18T17:01:02.440Z,6.43
2018-02-18T17:03:30.815Z,6.73
2018-02-18T17:05:59.901Z,6.07
2018-02-18T17:08:29.650Z,6.00
2018-02-18T17:10:58.545Z,6.90
2018-02-18T17:13:27.208Z,6.70
2018-02-18T17:15:55.477Z,7.93
2018-02-18T17:18:23.768Z,6.80
2018-02-18T17:20:52.052Z,7.93
2018-02-18T17:23:20.366Z,8.10
2018-02-18T17:25:49.620Z,7.03
2018-02-18T17:28:18.026Z,6.43
2018-02-18T17:30:46.301Z,10.40
2018-02-18T17:33:14.671Z,7.40
2018-02-18T17:35:42.900Z,6.73
2018-02-18T17:38:11.187Z,7.70
2018-02-18T17:40:40.109Z,7.60
2018-02-18T17:43:08.389Z,6.93
2018-02-18T17:45:36.652Z,8.33
2018-02-18T17:48:06.392Z,6.60
2018-02-18T17:50:35.059Z,7.37
2018-02-18T17:53:03.332Z,8.13
2018-02-18T17:55:32.239Z,8.50
2018-02-18T17:58:00.530Z,7.10
2018-02-18T18:00:28.808Z,7.60
2018-02-18T18:02:57.341Z,7.33
2018-02-18T18:05:25.585Z,7.87
2018-02-18T18:07:54.972Z,7.40
2018-02-18T18:10:24.969Z,5.30
2018-02-18T18:12:54.421Z,7.10
2018-02-18T18:15:24.420Z,6.50
2018-02-18T18:17:52.716Z,6.67
2018-02-18T18:20:21.762Z,7.40
2018-02-18T18:22:51.908Z,7.03
2018-02-18T18:25:21.079Z,8.70
2018-02-18T18:27:50.104Z,7.47
2018-02-18T18:30:18.417Z,7.70
2018-02-18T18:32:47.843Z,6.20
2018-02-18T18:35:17.989Z,6.63
2018-02-18T18:37:47.044Z,6.73
2018-02-18T18:40:15.330Z,7.87
2018-02-18T18:42:43.740Z,8.80
2018-02-18T18:45:12.030Z,7.37
2018-02-18T18:47:41.333Z,8.13
2018-02-18T18:50:09.628Z,6.80
2018-02-18T18:52:37.948Z,7.67
2018-02-18T18:55:06.541Z,7.50
2018-02-18T18:57:34.836Z,7.50
2018-02-18T19:00:03.139Z,6.30
2018-02-18T19:02:31.465Z,6.57
2018-02-18T19:04:59.741Z,5.63
2018-02-18T19:07:28.069Z,5.90
2018-02-18T19:09:56.376Z,6.30
2018-02-18T19:12:25.448Z,7.27
2018-02-18T19:14:53.820Z,7.10
2018-02-18T19:17:23.012Z,6.23
2018-02-18T19:19:51.588Z,7.27
2018-02-18T19:22:19.874Z,6.30
2018-02-18T19:24:48.244Z,7.03
2018-02-18T19:27:16.769Z,7.97
2018-02-18T19:29:45.226Z,8.60
2018-02-18T19:32:14.109Z,8.40
2018-02-18T19:34:42.477Z,7.80
2018-02-18T19:37:10.845Z,7.60
2018-02-18T19:39:39.848Z,8.30
2018-02-18T19:42:09.363Z,8.70
2018-02-18T19:44:37.637Z,8.63
2018-02-18T19:47:06.140Z,8.50
2018-02-18T19:49:34.496Z,8.60
2018-02-18T19:52:02.780Z,9.93
2018-02-18T19:54:31.667Z,8.50
2018-02-18T19:56:59.948Z,9.70
2018-02-18T19:59:28.990Z,9.70
2018-02-18T20:01:58.161Z,8.90
2018-02-18T20:04:26.468Z,9.60
2018-02-18T20:06:55.259Z,9.50
2018-02-18T20:09:24.327Z,9.20
2018-02-18T20:11:53.033Z,8.20
2018-02-18T20:14:21.393Z,9.23
2018-02-18T20:16:49.701Z,9.63
2018-02-18T20:19:18.986Z,8.47
2018-02-18T20:21:47.270Z,9.40
2018-02-18T20:24:16.648Z,9.87
2018-02-18T20:26:45.121Z,8.80
2018-02-18T20:29:13.422Z,8.93
2018-02-18T20:31:41.808Z,10.50
2018-02-18T20:34:10.099Z,10.10
2018-02-18T20:36:40.882Z,9.30
2018-02-18T20:39:09.172Z,11.40
2018-02-18T20:41:37.449Z,10.87
2018-02-18T20:44:05.777Z,10.13
2018-02-18T20:46:35.153Z,10.37
2018-02-18T20:49:04.236Z,11.50
2018-02-18T20:51:32.544Z,11.63
2018-02-18T20:54:01.580Z,10.17
2018-02-18T20:56:29.860Z,10.20
2018-02-18T20:58:58.269Z,10.53
2018-02-18T21:01:26.550Z,11.50
2018-02-18T21:03:54.804Z,11.10
2018-02-18T21:06:23.239Z,11.20
2018-02-18T21:08:51.732Z,12.03
2018-02-18T21:11:20.828Z,10.97
2018-02-18T21:13:49.877Z,11.80
2018-02-18T21:16:18.160Z,11.87
2018-02-18T21:18:46.473Z,11.67
2018-02-18T21:21:16.028Z,12.27
2018-02-18T21:23:46.089Z,11.20
2018-02-18T21:26:14.382Z,12.97
2018-02-18T21:28:44.362Z,13.90
2018-02-18T21:31:12.846Z,13.27
2018-02-18T21:33:41.903Z,10.50
2018-02-18T21:36:10.913Z,13.07
2018-02-18T21:38:39.396Z,13.40
2018-02-18T21:41:08.312Z,11.90
2018-02-18T21:43:36.633Z,12.97
2018-02-18T21:46:04.942Z,10.90
2018-02-18T21:48:33.221Z,12.30
2018-02-18T21:51:02.972Z,13.07
2018-02-18T21:53:31.358Z,13.20
2018-02-18T21:55:59.675Z,12.13
2018-02-18T21:58:27.956Z,11.50
2018-02-18T22:00:56.248Z,12.57
2018-02-18T22:03:25.689Z,11.80
2018-02-18T22:05:54.914Z,12.03
2018-02-18T22:08:23.998Z,13.73
2018-02-18T22:10:52.289Z,11.07
2018-02-18T22:13:21.442Z,13.00
2018-02-18T22:15:49.733Z,13.40
2018-02-18T22:18:18.313Z,12.23
2018-02-18T22:20:46.647Z,12.50
2018-02-18T22:23:14.921Z,11.10
2018-02-18T22:25:43.209Z,12.30
2018-02-18T22:28:11.605Z,10.30
2018-02-18T22:30:40.195Z,12.03
2018-02-18T22:33:08.896Z,12.10
2018-02-18T22:35:37.452Z,13.23
2018-02-18T22:38:05.749Z,11.67
2018-02-18T22:40:34.049Z,14.07
2018-02-18T22:43:02.385Z,13.57
2018-02-18T22:45:30.718Z,13.63
2018-02-18T22:47:59.011Z,12.50
2018-02-18T22:50:27.302Z,14.47
2018-02-18T22:52:55.748Z,13.97
2018-02-18T22:55:24.607Z,14.00
2018-02-18T22:57:52.868Z,15.73
2018-02-18T23:00:22.329Z,13.93
2018-02-18T23:02:50.785Z,13.30
2018-02-18T23:05:24.757Z,14.93
2018-02-18T23:07:53.039Z,13.10
2018-02-18T23:10:22.140Z,13.33
2018-02-18T23:12:51.358Z,12.80
2018-02-18T23:15:19.664Z,13.27
2018-02-18T23:17:48.179Z,12.80
2018-02-18T23:20:17.221Z,12.97
2018-02-18T23:22:45.600Z,14.17
2018-02-18T23:25:13.986Z,10.77
2018-02-18T23:27:42.353Z,13.30
2018-02-18T23:30:10.933Z,12.30
2018-02-18T23:32:39.320Z,12.87
2018-02-18T23:35:07.621Z,12.07
2018-02-18T23:37:36.725Z,12.97
2018-02-18T23:40:04.996Z,14.70
2018-02-18T23:42:33.280Z,13.93
2018-02-18T23:45:01.824Z,13.83
2018-02-18T23:47:30.960Z,12.47
2018-02-18T23:49:59.340Z,12.77
2018-02-18T23:52:28.201Z,13.70
2018-02-18T23:54:57.136Z,12.27
2018-02-18T23:57:26.072Z,14.07
2018-02-18T23:59:54.357Z,14.60
